sensor_id;sensor_type;location;lat;lon;timestamp;pressure;altitude;pressure_sealevel;temperature;humidity
24104;BME280;12278;53.058;9.028;2022-07-21T00:02:06;101228.81;;;21.85;80.27
24104;BME280;12278;53.058;9.028;2022-07-21T00:06:07;101225.44;;;21.79;81.19
24104;BME280;12278;53.058;9.028;2022-07-21T00:10:09;101226.66;;;21.68;81.72
24104;BME280;12278;53.058;9.028;2022-07-21T00:14:11;101265.19;;;21.53;81.92
24104;BME280;12278;53.058;9.028;2022-07-21T00:18:13;101305.44;;;21.06;84.49
24104;BME280;12278;53.058;9.028;2022-07-21T00:22:14;101350.50;;;21.11;84.73
24104;BME280;12278;53.058;9.028;2022-07-21T00:26:15;101372.44;;;21.03;85.76
24104;BME280;12278;53.058;9.028;2022-07-21T00:30:16;101383.25;;;21.04;86.59
24104;BME280;12278;53.058;9.028;2022-07-21T00:34:16;101422.69;;;21.15;86.11
24104;BME280;12278;53.058;9.028;2022-07-21T00:38:18;101466.44;;;21.02;87.17
24104;BME280;12278;53.058;9.028;2022-07-21T00:42:29;101461.97;;;21.00;87.67
24104;BME280;12278;53.058;9.028;2022-07-21T00:46:30;101436.63;;;21.02;88.86
24104;BME280;12278;53.058;9.028;2022-07-21T00:50:33;101432.13;;;21.00;89.62
24104;BME280;12278;53.058;9.028;2022-07-21T00:54:34;101423.69;;;21.12;90.50
24104;BME280;12278;53.058;9.028;2022-07-21T00:58:35;101401.84;;;21.17;89.96
24104;BME280;12278;53.058;9.028;2022-07-21T01:02:36;101371.91;;;21.21;90.00
24104;BME280;12278;53.058;9.028;2022-07-21T01:06:37;101347.03;;;21.38;88.52
24104;BME280;12278;53.058;9.028;2022-07-21T01:10:39;101332.81;;;21.59;87.56
24104;BME280;12278;53.058;9.028;2022-07-21T01:14:40;101324.94;;;21.50;86.88
24104;BME280;12278;53.058;9.028;2022-07-21T01:18:41;101312.47;;;21.45;87.02
24104;BME280;12278;53.058;9.028;2022-07-21T01:22:45;101293.06;;;21.58;86.43
24104;BME280;12278;53.058;9.028;2022-07-21T01:26:51;101297.22;;;21.68;86.19
24104;BME280;12278;53.058;9.028;2022-07-21T01:30:53;101307.91;;;21.75;85.63
24104;BME280;12278;53.058;9.028;2022-07-21T01:34:54;101291.31;;;21.84;85.40
24104;BME280;12278;53.058;9.028;2022-07-21T01:38:54;101308.84;;;21.74;85.41
24104;BME280;12278;53.058;9.028;2022-07-21T01:43:14;101316.13;;;21.73;85.92
24104;BME280;12278;53.058;9.028;2022-07-21T01:47:15;101317.56;;;21.55;85.84
24104;BME280;12278;53.058;9.028;2022-07-21T01:51:18;101302.88;;;21.62;85.93
24104;BME280;12278;53.058;9.028;2022-07-21T01:55:19;101317.38;;;21.32;87.68
24104;BME280;12278;53.058;9.028;2022-07-21T01:59:20;101332.63;;;21.36;87.21
24104;BME280;12278;53.058;9.028;2022-07-21T02:03:21;101345.72;;;21.51;86.83
24104;BME280;12278;53.058;9.028;2022-07-21T02:07:22;101339.72;;;21.71;86.19
24104;BME280;12278;53.058;9.028;2022-07-21T02:11:23;101344.97;;;21.46;86.57
24104;BME280;12278;53.058;9.028;2022-07-21T02:15:24;101349.75;;;21.67;85.99
24104;BME280;12278;53.058;9.028;2022-07-21T02:19:25;101347.03;;;21.67;85.64
24104;BME280;12278;53.058;9.028;2022-07-21T02:23:26;101345.19;;;21.70;85.02
24104;BME280;12278;53.058;9.028;2022-07-21T02:27:27;101335.59;;;21.86;84.77
24104;BME280;12278;53.058;9.028;2022-07-21T02:31:28;101335.56;;;21.87;84.33
24104;BME280;12278;53.058;9.028;2022-07-21T02:35:29;101318.66;;;21.78;83.41
24104;BME280;12278;53.058;9.028;2022-07-21T02:39:31;101323.00;;;21.83;83.26
24104;BME280;12278;53.058;9.028;2022-07-21T02:43:32;101332.50;;;21.70;83.29
24104;BME280;12278;53.058;9.028;2022-07-21T02:47:47;101327.97;;;21.71;83.40
24104;BME280;12278;53.058;9.028;2022-07-21T02:51:48;101334.44;;;21.65;83.12
24104;BME280;12278;53.058;9.028;2022-07-21T02:55:51;101322.53;;;21.71;82.17
24104;BME280;12278;53.058;9.028;2022-07-21T02:59:55;101307.03;;;21.74;82.39
24104;BME280;12278;53.058;9.028;2022-07-21T03:03:55;101292.16;;;21.86;82.77
24104;BME280;12278;53.058;9.028;2022-07-21T03:07:56;101277.34;;;21.68;82.69
24104;BME280;12278;53.058;9.028;2022-07-21T03:11:57;101286.25;;;21.73;82.04
24104;BME280;12278;53.058;9.028;2022-07-21T03:15:58;101248.09;;;21.20;84.78
24104;BME280;12278;53.058;9.028;2022-07-21T03:19:59;101264.41;;;21.48;84.08
24104;BME280;12278;53.058;9.028;2022-07-21T03:24:00;101266.91;;;21.26;85.31
24104;BME280;12278;53.058;9.028;2022-07-21T03:28:01;101292.09;;;20.99;87.77
24104;BME280;12278;53.058;9.028;2022-07-21T03:32:02;101297.25;;;20.77;87.58
24104;BME280;12278;53.058;9.028;2022-07-21T03:36:04;101307.81;;;20.88;89.16
24104;BME280;12278;53.058;9.028;2022-07-21T03:40:06;101306.47;;;21.02;89.39
24104;BME280;12278;53.058;9.028;2022-07-21T03:44:07;101290.03;;;21.08;89.09
24104;BME280;12278;53.058;9.028;2022-07-21T03:48:09;101279.28;;;21.05;89.00
24104;BME280;12278;53.058;9.028;2022-07-21T03:52:11;101270.09;;;21.10;88.25
24104;BME280;12278;53.058;9.028;2022-07-21T03:56:11;101258.09;;;21.18;88.40
24104;BME280;12278;53.058;9.028;2022-07-21T04:00:20;101245.44;;;21.19;87.53
24104;BME280;12278;53.058;9.028;2022-07-21T04:04:24;101254.38;;;21.22;86.82
24104;BME280;12278;53.058;9.028;2022-07-21T04:08:25;101266.59;;;21.06;86.53
24104;BME280;12278;53.058;9.028;2022-07-21T04:12:27;101263.16;;;20.99;87.41
24104;BME280;12278;53.058;9.028;2022-07-21T04:16:28;101254.97;;;21.02;87.16
24104;BME280;12278;53.058;9.028;2022-07-21T04:20:29;101246.69;;;21.07;86.63
24104;BME280;12278;53.058;9.028;2022-07-21T04:24:30;101213.63;;;20.94;87.35
24104;BME280;12278;53.058;9.028;2022-07-21T04:28:31;101198.41;;;20.90;88.46
24104;BME280;12278;53.058;9.028;2022-07-21T04:32:32;101208.09;;;20.68;87.42
24104;BME280;12278;53.058;9.028;2022-07-21T04:36:33;101205.31;;;20.71;88.91
24104;BME280;12278;53.058;9.028;2022-07-21T04:40:33;101208.00;;;20.38;90.08
24104;BME280;12278;53.058;9.028;2022-07-21T04:44:34;101222.75;;;20.61;89.47
24104;BME280;12278;53.058;9.028;2022-07-21T04:48:35;101226.69;;;20.80;88.42
24104;BME280;12278;53.058;9.028;2022-07-21T04:52:36;101203.06;;;20.85;88.56
24104;BME280;12278;53.058;9.028;2022-07-21T04:56:37;101198.94;;;20.72;89.34
24104;BME280;12278;53.058;9.028;2022-07-21T05:00:38;101203.19;;;20.81;89.17
24104;BME280;12278;53.058;9.028;2022-07-21T05:04:41;101206.09;;;20.74;90.07
24104;BME280;12278;53.058;9.028;2022-07-21T05:08:41;101212.00;;;20.89;89.11
24104;BME280;12278;53.058;9.028;2022-07-21T05:12:43;101236.53;;;20.84;88.60
24104;BME280;12278;53.058;9.028;2022-07-21T05:16:44;101244.78;;;20.47;90.97
24104;BME280;12278;53.058;9.028;2022-07-21T05:20:45;101268.97;;;20.55;90.78
24104;BME280;12278;53.058;9.028;2022-07-21T05:24:45;101293.19;;;20.61;91.84
24104;BME280;12278;53.058;9.028;2022-07-21T05:28:46;101303.88;;;20.67;90.96
24104;BME280;12278;53.058;9.028;2022-07-21T05:32:47;101319.63;;;20.85;89.95
24104;BME280;12278;53.058;9.028;2022-07-21T05:36:48;101318.38;;;20.97;90.14
24104;BME280;12278;53.058;9.028;2022-07-21T05:40:49;101329.78;;;20.77;90.63
24104;BME280;12278;53.058;9.028;2022-07-21T05:44:50;101331.19;;;20.58;91.04
24104;BME280;12278;53.058;9.028;2022-07-21T05:48:53;101324.22;;;20.49;91.37
24104;BME280;12278;53.058;9.028;2022-07-21T05:52:55;101320.53;;;20.52;92.52
24104;BME280;12278;53.058;9.028;2022-07-21T05:56:57;101313.78;;;20.32;93.44
24104;BME280;12278;53.058;9.028;2022-07-21T06:00:58;101322.00;;;20.63;92.86
24104;BME280;12278;53.058;9.028;2022-07-21T06:05:08;101317.78;;;20.53;93.74
24104;BME280;12278;53.058;9.028;2022-07-21T06:09:11;101320.75;;;20.42;94.09
24104;BME280;12278;53.058;9.028;2022-07-21T06:13:12;101327.66;;;20.56;94.33
24104;BME280;12278;53.058;9.028;2022-07-21T06:17:12;101335.09;;;20.80;93.86
24104;BME280;12278;53.058;9.028;2022-07-21T06:21:13;101329.78;;;20.43;96.54
24104;BME280;12278;53.058;9.028;2022-07-21T06:25:14;101333.38;;;20.43;97.91
24104;BME280;12278;53.058;9.028;2022-07-21T06:29:15;101331.28;;;20.19;100.00
24104;BME280;12278;53.058;9.028;2022-07-21T06:33:16;101338.22;;;20.29;100.00
24104;BME280;12278;53.058;9.028;2022-07-21T06:37:17;101338.06;;;20.00;100.00
24104;BME280;12278;53.058;9.028;2022-07-21T06:41:18;101355.19;;;20.00;100.00
24104;BME280;12278;53.058;9.028;2022-07-21T06:45:19;101356.88;;;20.06;100.00
24104;BME280;12278;53.058;9.028;2022-07-21T06:49:20;101372.47;;;19.95;100.00
24104;BME280;12278;53.058;9.028;2022-07-21T06:53:22;101373.19;;;19.64;100.00
24104;BME280;12278;53.058;9.028;2022-07-21T06:57:23;101372.25;;;19.65;100.00
24104;BME280;12278;53.058;9.028;2022-07-21T07:01:24;101380.56;;;19.56;100.00
24104;BME280;12278;53.058;9.028;2022-07-21T07:05:25;101392.50;;;19.43;100.00
24104;BME280;12278;53.058;9.028;2022-07-21T07:09:28;101395.31;;;19.38;100.00
24104;BME280;12278;53.058;9.028;2022-07-21T07:13:29;101405.44;;;19.28;100.00
24104;BME280;12278;53.058;9.028;2022-07-21T07:17:30;101402.69;;;19.32;100.00
24104;BME280;12278;53.058;9.028;2022-07-21T07:21:31;101411.47;;;19.41;100.00
24104;BME280;12278;53.058;9.028;2022-07-21T07:25:32;101417.97;;;19.33;100.00
24104;BME280;12278;53.058;9.028;2022-07-21T07:29:32;101423.50;;;19.28;100.00
24104;BME280;12278;53.058;9.028;2022-07-21T07:33:34;101421.63;;;19.30;100.00
24104;BME280;12278;53.058;9.028;2022-07-21T07:37:40;101422.56;;;19.29;100.00
24104;BME280;12278;53.058;9.028;2022-07-21T07:41:44;101415.84;;;19.48;100.00
24104;BME280;12278;53.058;9.028;2022-07-21T07:45:45;101404.47;;;19.33;100.00
24104;BME280;12278;53.058;9.028;2022-07-21T07:49:46;101413.44;;;19.79;100.00
24104;BME280;12278;53.058;9.028;2022-07-21T07:53:49;101406.09;;;20.23;100.00
24104;BME280;12278;53.058;9.028;2022-07-21T07:57:50;101412.69;;;20.50;100.00
24104;BME280;12278;53.058;9.028;2022-07-21T08:01:51;101414.97;;;20.99;100.00
24104;BME280;12278;53.058;9.028;2022-07-21T08:05:55;101407.78;;;20.64;100.00
24104;BME280;12278;53.058;9.028;2022-07-21T08:09:59;101412.44;;;20.93;100.00
24104;BME280;12278;53.058;9.028;2022-07-21T08:14:00;101417.19;;;20.85;100.00
24104;BME280;12278;53.058;9.028;2022-07-21T08:18:02;101422.97;;;21.05;100.00
24104;BME280;12278;53.058;9.028;2022-07-21T08:22:03;101435.84;;;22.23;100.00
24104;BME280;12278;53.058;9.028;2022-07-21T08:26:05;101422.16;;;22.26;97.20
24104;BME280;12278;53.058;9.028;2022-07-21T08:30:06;101426.59;;;23.09;97.72
24104;BME280;12278;53.058;9.028;2022-07-21T08:34:07;101417.88;;;22.72;93.25
24104;BME280;12278;53.058;9.028;2022-07-21T08:38:10;101421.34;;;22.77;91.74
24104;BME280;12278;53.058;9.028;2022-07-21T08:42:13;101424.81;;;23.08;90.29
24104;BME280;12278;53.058;9.028;2022-07-21T08:46:15;101414.19;;;22.74;91.45
24104;BME280;12278;53.058;9.028;2022-07-21T08:50:17;101424.94;;;23.04;95.22
24104;BME280;12278;53.058;9.028;2022-07-21T08:54:22;101434.78;;;23.33;93.90
24104;BME280;12278;53.058;9.028;2022-07-21T08:58:23;101419.31;;;23.10;91.26
24104;BME280;12278;53.058;9.028;2022-07-21T09:02:33;101425.13;;;22.99;91.61
24104;BME280;12278;53.058;9.028;2022-07-21T09:07:03;101425.63;;;23.35;89.47
24104;BME280;12278;53.058;9.028;2022-07-21T09:15:17;101412.88;;;22.05;92.75
24104;BME280;12278;53.058;9.028;2022-07-21T09:19:26;101429.66;;;22.46;92.74
24104;BME280;12278;53.058;9.028;2022-07-21T09:23:28;101432.63;;;22.93;90.80
24104;BME280;12278;53.058;9.028;2022-07-21T09:27:28;101433.09;;;23.30;88.31
24104;BME280;12278;53.058;9.028;2022-07-21T09:31:29;101439.03;;;24.12;86.65
24104;BME280;12278;53.058;9.028;2022-07-21T09:35:30;101438.88;;;24.82;77.58
24104;BME280;12278;53.058;9.028;2022-07-21T09:43:49;101431.88;;;22.88;87.88
24104;BME280;12278;53.058;9.028;2022-07-21T09:47:50;101433.34;;;23.23;86.93
24104;BME280;12278;53.058;9.028;2022-07-21T09:51:51;101445.25;;;23.45;82.51
24104;BME280;12278;53.058;9.028;2022-07-21T09:55:52;101431.75;;;22.92;83.99
24104;BME280;12278;53.058;9.028;2022-07-21T09:59:54;101430.91;;;22.62;82.13
24104;BME280;12278;53.058;9.028;2022-07-21T10:03:58;101442.25;;;23.28;83.82
24104;BME280;12278;53.058;9.028;2022-07-21T10:08:03;101440.75;;;23.44;79.96
24104;BME280;12278;53.058;9.028;2022-07-21T10:12:05;101440.25;;;24.04;77.29
24104;BME280;12278;53.058;9.028;2022-07-21T10:16:10;101429.81;;;23.92;75.34
24104;BME280;12278;53.058;9.028;2022-07-21T10:20:16;101423.84;;;23.59;75.80
24104;BME280;12278;53.058;9.028;2022-07-21T10:24:19;101431.78;;;23.40;78.36
24104;BME280;12278;53.058;9.028;2022-07-21T10:28:22;101431.31;;;24.01;74.83
24104;BME280;12278;53.058;9.028;2022-07-21T10:32:32;101438.38;;;24.30;73.82
24104;BME280;12278;53.058;9.028;2022-07-21T10:40:36;101415.56;;;23.86;75.28
24104;BME280;12278;53.058;9.028;2022-07-21T10:44:44;101420.22;;;24.29;74.09
24104;BME280;12278;53.058;9.028;2022-07-21T10:48:48;101423.78;;;24.95;73.21
24104;BME280;12278;53.058;9.028;2022-07-21T10:53:00;101426.34;;;25.20;75.06
24104;BME280;12278;53.058;9.028;2022-07-21T10:57:28;101416.94;;;25.07;72.80
24104;BME280;12278;53.058;9.028;2022-07-21T11:01:29;101401.44;;;24.43;76.70
24104;BME280;12278;53.058;9.028;2022-07-21T11:05:33;101404.97;;;25.30;75.61
24104;BME280;12278;53.058;9.028;2022-07-21T11:09:34;101412.03;;;25.35;73.55
24104;BME280;12278;53.058;9.028;2022-07-21T11:14:09;101407.19;;;25.21;74.03
24104;BME280;12278;53.058;9.028;2022-07-21T11:18:16;101396.59;;;24.51;74.79
24104;BME280;12278;53.058;9.028;2022-07-21T11:22:23;101395.72;;;24.27;74.35
24104;BME280;12278;53.058;9.028;2022-07-21T11:26:25;101387.66;;;23.81;75.28
24104;BME280;12278;53.058;9.028;2022-07-21T11:30:26;101388.66;;;23.78;78.36
24104;BME280;12278;53.058;9.028;2022-07-21T11:39:15;101392.38;;;23.27;83.46
24104;BME280;12278;53.058;9.028;2022-07-21T11:43:16;101399.41;;;23.58;79.82
24104;BME280;12278;53.058;9.028;2022-07-21T11:47:17;101400.69;;;24.61;80.73
24104;BME280;12278;53.058;9.028;2022-07-21T11:51:18;101401.69;;;25.81;76.27
24104;BME280;12278;53.058;9.028;2022-07-21T11:55:19;101387.94;;;26.20;72.45
24104;BME280;12278;53.058;9.028;2022-07-21T11:59:20;101405.88;;;26.81;69.71
24104;BME280;12278;53.058;9.028;2022-07-21T12:03:22;101380.59;;;26.58;70.40
24104;BME280;12278;53.058;9.028;2022-07-21T12:07:35;101377.88;;;27.60;66.84
24104;BME280;12278;53.058;9.028;2022-07-21T12:11:39;101361.94;;;26.84;65.89
24104;BME280;12278;53.058;9.028;2022-07-21T12:15:40;101371.19;;;27.16;65.44
24104;BME280;12278;53.058;9.028;2022-07-21T12:19:43;101342.34;;;25.84;64.64
24104;BME280;12278;53.058;9.028;2022-07-21T12:23:45;101359.59;;;26.59;66.47
24104;BME280;12278;53.058;9.028;2022-07-21T12:27:47;101357.06;;;27.08;63.74
24104;BME280;12278;53.058;9.028;2022-07-21T12:31:50;101347.97;;;26.36;63.73
24104;BME280;12278;53.058;9.028;2022-07-21T12:36:06;101342.75;;;25.57;66.62
24104;BME280;12278;53.058;9.028;2022-07-21T12:40:10;101368.03;;;26.89;64.82
24104;BME280;12278;53.058;9.028;2022-07-21T12:44:11;101351.31;;;26.95;63.48
24104;BME280;12278;53.058;9.028;2022-07-21T12:48:15;101346.56;;;26.28;64.02
24104;BME280;12278;53.058;9.028;2022-07-21T12:52:17;101341.25;;;25.89;65.86
24104;BME280;12278;53.058;9.028;2022-07-21T12:56:31;101335.59;;;26.10;65.96
24104;BME280;12278;53.058;9.028;2022-07-21T13:00:33;101340.66;;;26.18;65.13
24104;BME280;12278;53.058;9.028;2022-07-21T13:04:34;101356.97;;;27.42;62.68
24104;BME280;12278;53.058;9.028;2022-07-21T13:08:36;101345.34;;;27.21;61.32
24104;BME280;12278;53.058;9.028;2022-07-21T13:12:38;101318.59;;;25.87;64.69
24104;BME280;12278;53.058;9.028;2022-07-21T13:16:38;101305.94;;;25.07;68.11
24104;BME280;12278;53.058;9.028;2022-07-21T13:20:39;101310.84;;;24.79;68.35
24104;BME280;12278;53.058;9.028;2022-07-21T13:24:40;101314.81;;;24.72;70.22
24104;BME280;12278;53.058;9.028;2022-07-21T13:28:41;101318.03;;;25.02;69.85
24104;BME280;12278;53.058;9.028;2022-07-21T13:32:42;101347.72;;;26.05;68.44
24104;BME280;12278;53.058;9.028;2022-07-21T13:36:44;101356.16;;;26.36;67.75
24104;BME280;12278;53.058;9.028;2022-07-21T13:40:45;101342.38;;;25.45;66.79
24104;BME280;12278;53.058;9.028;2022-07-21T13:44:47;101335.69;;;25.52;66.64
24104;BME280;12278;53.058;9.028;2022-07-21T13:48:48;101332.75;;;25.18;67.62
24104;BME280;12278;53.058;9.028;2022-07-21T13:52:49;101335.38;;;25.40;67.31
24104;BME280;12278;53.058;9.028;2022-07-21T13:56:50;101335.38;;;25.59;67.21
24104;BME280;12278;53.058;9.028;2022-07-21T14:00:51;101335.38;;;25.40;69.19
24104;BME280;12278;53.058;9.028;2022-07-21T14:04:53;101332.41;;;25.44;70.42
24104;BME280;12278;53.058;9.028;2022-07-21T14:08:55;101335.06;;;24.86;69.84
24104;BME280;12278;53.058;9.028;2022-07-21T14:12:56;101361.31;;;25.30;69.03
24104;BME280;12278;53.058;9.028;2022-07-21T14:16:57;101368.88;;;26.37;65.22
24104;BME280;12278;53.058;9.028;2022-07-21T14:21:00;101354.94;;;26.25;65.88
24104;BME280;12278;53.058;9.028;2022-07-21T14:25:01;101331.88;;;25.75;67.27
24104;BME280;12278;53.058;9.028;2022-07-21T14:29:20;101341.09;;;27.49;62.50
24104;BME280;12278;53.058;9.028;2022-07-21T14:33:21;101335.34;;;28.94;55.43
24104;BME280;12278;53.058;9.028;2022-07-21T14:37:22;101316.75;;;28.07;57.46
24104;BME280;12278;53.058;9.028;2022-07-21T14:41:22;101291.56;;;26.34;63.54
24104;BME280;12278;53.058;9.028;2022-07-21T14:45:23;101289.03;;;25.57;65.72
24104;BME280;12278;53.058;9.028;2022-07-21T14:49:24;101304.09;;;26.57;64.91
24104;BME280;12278;53.058;9.028;2022-07-21T14:53:26;101317.72;;;27.75;61.18
24104;BME280;12278;53.058;9.028;2022-07-21T14:57:26;101321.63;;;27.38;61.61
24104;BME280;12278;53.058;9.028;2022-07-21T15:01:28;101322.28;;;27.58;60.80
24104;BME280;12278;53.058;9.028;2022-07-21T15:05:29;101347.34;;;30.07;54.13
24104;BME280;12278;53.058;9.028;2022-07-21T15:09:30;101309.63;;;29.53;53.38
24104;BME280;12278;53.058;9.028;2022-07-21T15:13:31;101318.97;;;28.01;58.37
24104;BME280;12278;53.058;9.028;2022-07-21T15:17:32;101299.63;;;26.01;64.83
24104;BME280;12278;53.058;9.028;2022-07-21T15:21:33;101284.47;;;25.39;63.60
24104;BME280;12278;53.058;9.028;2022-07-21T15:25:34;101276.00;;;24.85;67.24
24104;BME280;12278;53.058;9.028;2022-07-21T15:29:35;101303.47;;;24.81;70.11
24104;BME280;12278;53.058;9.028;2022-07-21T15:33:36;101325.03;;;24.87;70.63
24104;BME280;12278;53.058;9.028;2022-07-21T15:37:38;101321.69;;;24.60;72.03
24104;BME280;12278;53.058;9.028;2022-07-21T15:41:39;101313.25;;;24.66;68.10
24104;BME280;12278;53.058;9.028;2022-07-21T15:45:40;101304.56;;;24.77;64.57
24104;BME280;12278;53.058;9.028;2022-07-21T15:49:42;101292.09;;;24.71;65.31
24104;BME280;12278;53.058;9.028;2022-07-21T15:53:43;101302.22;;;24.69;65.04
24104;BME280;12278;53.058;9.028;2022-07-21T15:57:43;101296.84;;;24.46;66.03
24104;BME280;12278;53.058;9.028;2022-07-21T16:01:44;101287.06;;;24.20;67.26
24104;BME280;12278;53.058;9.028;2022-07-21T16:05:45;101282.94;;;24.10;68.33
24104;BME280;12278;53.058;9.028;2022-07-21T16:09:46;101289.19;;;24.12;68.41
24104;BME280;12278;53.058;9.028;2022-07-21T16:13:47;101289.69;;;24.01;68.49
24104;BME280;12278;53.058;9.028;2022-07-21T16:17:50;101288.34;;;23.44;72.39
24104;BME280;12278;53.058;9.028;2022-07-21T16:21:52;101292.50;;;22.82;75.50
24104;BME280;12278;53.058;9.028;2022-07-21T16:25:53;101295.72;;;22.42;78.08
24104;BME280;12278;53.058;9.028;2022-07-21T16:29:54;101321.41;;;22.32;76.59
24104;BME280;12278;53.058;9.028;2022-07-21T16:33:55;101318.53;;;22.37;76.02
24104;BME280;12278;53.058;9.028;2022-07-21T16:37:56;101316.16;;;22.27;76.97
24104;BME280;12278;53.058;9.028;2022-07-21T16:41:57;101310.34;;;22.12;78.24
24104;BME280;12278;53.058;9.028;2022-07-21T16:45:58;101314.03;;;21.81;78.21
24104;BME280;12278;53.058;9.028;2022-07-21T16:49:58;101333.19;;;22.06;79.77
24104;BME280;12278;53.058;9.028;2022-07-21T16:53:59;101329.47;;;22.09;79.99
24104;BME280;12278;53.058;9.028;2022-07-21T16:58:00;101334.91;;;22.35;80.69
24104;BME280;12278;53.058;9.028;2022-07-21T17:02:01;101340.16;;;22.66;80.37
24104;BME280;12278;53.058;9.028;2022-07-21T17:06:02;101340.94;;;22.96;80.75
24104;BME280;12278;53.058;9.028;2022-07-21T17:10:04;101347.31;;;22.95;80.83
24104;BME280;12278;53.058;9.028;2022-07-21T17:14:06;101339.88;;;22.49;82.70
24104;BME280;12278;53.058;9.028;2022-07-21T17:18:06;101345.75;;;22.35;84.67
24104;BME280;12278;53.058;9.028;2022-07-21T17:22:07;101330.34;;;22.36;82.53
24104;BME280;12278;53.058;9.028;2022-07-21T17:26:08;101328.38;;;22.14;83.94
24104;BME280;12278;53.058;9.028;2022-07-21T17:30:09;101335.16;;;22.27;84.25
24104;BME280;12278;53.058;9.028;2022-07-21T17:34:10;101336.16;;;22.25;85.11
24104;BME280;12278;53.058;9.028;2022-07-21T17:38:11;101341.81;;;22.70;82.87
24104;BME280;12278;53.058;9.028;2022-07-21T17:42:12;101333.31;;;22.54;82.07
24104;BME280;12278;53.058;9.028;2022-07-21T17:46:13;101337.03;;;22.52;83.53
24104;BME280;12278;53.058;9.028;2022-07-21T17:50:14;101340.59;;;22.27;83.77
24104;BME280;12278;53.058;9.028;2022-07-21T17:54:15;101338.94;;;22.23;86.26
24104;BME280;12278;53.058;9.028;2022-07-21T17:58:16;101336.09;;;21.98;87.15
24104;BME280;12278;53.058;9.028;2022-07-21T18:02:36;101326.56;;;21.85;88.57
24104;BME280;12278;53.058;9.028;2022-07-21T18:06:37;101326.25;;;21.66;89.56
24104;BME280;12278;53.058;9.028;2022-07-21T18:10:38;101330.94;;;21.61;89.88
24104;BME280;12278;53.058;9.028;2022-07-21T18:14:39;101330.69;;;21.71;91.38
24104;BME280;12278;53.058;9.028;2022-07-21T18:18:40;101335.00;;;21.76;90.29
24104;BME280;12278;53.058;9.028;2022-07-21T18:22:41;101338.72;;;21.74;91.38
24104;BME280;12278;53.058;9.028;2022-07-21T18:26:43;101343.00;;;21.51;93.31
24104;BME280;12278;53.058;9.028;2022-07-21T18:30:47;101333.06;;;21.21;95.46
24104;BME280;12278;53.058;9.028;2022-07-21T18:34:48;101331.44;;;21.14;97.68
24104;BME280;12278;53.058;9.028;2022-07-21T18:38:49;101342.75;;;21.29;97.94
24104;BME280;12278;53.058;9.028;2022-07-21T18:42:51;101333.16;;;21.18;97.97
24104;BME280;12278;53.058;9.028;2022-07-21T18:46:52;101346.38;;;21.30;98.42
24104;BME280;12278;53.058;9.028;2022-07-21T18:50:53;101340.34;;;21.19;98.60
24104;BME280;12278;53.058;9.028;2022-07-21T18:54:54;101345.00;;;20.81;100.00
24104;BME280;12278;53.058;9.028;2022-07-21T18:58:55;101346.81;;;20.81;100.00
24104;BME280;12278;53.058;9.028;2022-07-21T19:02:56;101349.03;;;20.99;100.00
24104;BME280;12278;53.058;9.028;2022-07-21T19:06:59;101352.72;;;20.96;100.00
24104;BME280;12278;53.058;9.028;2022-07-21T19:11:00;101347.63;;;21.17;100.00
24104;BME280;12278;53.058;9.028;2022-07-21T19:15:01;101347.16;;;21.02;100.00
24104;BME280;12278;53.058;9.028;2022-07-21T19:19:02;101351.78;;;20.97;100.00
24104;BME280;12278;53.058;9.028;2022-07-21T19:23:03;101354.44;;;21.00;100.00
24104;BME280;12278;53.058;9.028;2022-07-21T19:27:05;101360.19;;;20.88;100.00
24104;BME280;12278;53.058;9.028;2022-07-21T19:31:07;101363.03;;;20.82;100.00
24104;BME280;12278;53.058;9.028;2022-07-21T19:35:08;101361.63;;;20.69;100.00
24104;BME280;12278;53.058;9.028;2022-07-21T19:39:09;101365.31;;;20.65;100.00
24104;BME280;12278;53.058;9.028;2022-07-21T19:43:10;101366.28;;;20.62;100.00
24104;BME280;12278;53.058;9.028;2022-07-21T19:47:11;101376.91;;;20.71;100.00
24104;BME280;12278;53.058;9.028;2022-07-21T19:51:12;101371.75;;;20.61;100.00
24104;BME280;12278;53.058;9.028;2022-07-21T19:55:14;101384.47;;;20.59;100.00
24104;BME280;12278;53.058;9.028;2022-07-21T19:59:15;101397.75;;;20.69;100.00
24104;BME280;12278;53.058;9.028;2022-07-21T20:03:17;101391.97;;;20.82;100.00
24104;BME280;12278;53.058;9.028;2022-07-21T20:07:18;101390.50;;;20.70;100.00
24104;BME280;12278;53.058;9.028;2022-07-21T20:11:20;101385.00;;;20.73;100.00
24104;BME280;12278;53.058;9.028;2022-07-21T20:15:21;101386.81;;;20.72;100.00
24104;BME280;12278;53.058;9.028;2022-07-21T20:19:22;101381.66;;;20.62;100.00
24104;BME280;12278;53.058;9.028;2022-07-21T20:23:23;101382.06;;;20.46;100.00
24104;BME280;12278;53.058;9.028;2022-07-21T20:27:25;101382.38;;;20.33;100.00
24104;BME280;12278;53.058;9.028;2022-07-21T20:31:26;101378.63;;;20.38;100.00
24104;BME280;12278;53.058;9.028;2022-07-21T20:35:27;101377.69;;;20.41;100.00
24104;BME280;12278;53.058;9.028;2022-07-21T20:39:28;101383.66;;;20.55;100.00
24104;BME280;12278;53.058;9.028;2022-07-21T20:43:29;101373.97;;;20.45;100.00
24104;BME280;12278;53.058;9.028;2022-07-21T20:47:30;101369.66;;;20.36;100.00
24104;BME280;12278;53.058;9.028;2022-07-21T20:51:31;101378.84;;;20.29;100.00
24104;BME280;12278;53.058;9.028;2022-07-21T20:55:32;101365.75;;;20.11;100.00
24104;BME280;12278;53.058;9.028;2022-07-21T20:59:33;101369.59;;;20.02;100.00
24104;BME280;12278;53.058;9.028;2022-07-21T21:03:34;101374.13;;;20.02;100.00
24104;BME280;12278;53.058;9.028;2022-07-21T21:07:35;101366.09;;;19.97;100.00
24104;BME280;12278;53.058;9.028;2022-07-21T21:11:36;101364.56;;;19.85;100.00
24104;BME280;12278;53.058;9.028;2022-07-21T21:15:37;101376.84;;;20.00;100.00
24104;BME280;12278;53.058;9.028;2022-07-21T21:19:39;101373.53;;;19.87;100.00